• Join FlightAware (Why Join?)
  • Login
  • US Flag 
08:56PM EST


 

Airport Tracker/Info


-or-


 

Live Flight TrackerFlight Track Log ✈ CTL22 ✈ 19-Apr-2013 ✈ KAZO - KBKL

Flight Track Log - Related Links

Times and Time Zones

All times are in EDT time to prevent confusion due to time zone crossing. See the CTL22 flight status page for this flight to view local times or setup timezone preferences in your user account.

Time Position Orientation Groundspeed Altitude Reporting Facility
EDT Latitude Longitude Course Direction KTS MPH feet Rate Location/Type
08:41PM 42.1611 -85.3625 111° Southeast 157 181 4,800  Level Chicago Center
08:42PM 42.1389 -85.2925 113° Southeast 166 191 5,900 960 Climbing Chicago Center
08:43PM 42.1760 -85.2048 103° East  Level Estimated
08:43PM 42.1194 -85.2375 115° Southeast 164 189 6,800  Level Chicago Center
08:44PM 42.1642 -85.1355 103° East  Level Estimated
08:44PM 42.0964 -85.1844 120° Southeast 165 190 7,100  Level Chicago Center
08:45PM 42.1524 -85.0662 103° East  Level Estimated
08:45PM 42.0733 -85.1225 117° Southeast 178 205 7,200  Level Chicago Center
08:46PM 42.0525 -85.0531 112° Southeast 194 223 7,100 -60 Descending Chicago Center
08:47PM 42.0264 -84.9883 118° Southeast 196 226 7,100  Level Chicago Center
08:48PM 42.0039 -84.9211 114° Southeast 197 227 7,200  Climbing Chicago Center
08:49PM 41.9725 -84.8458 119° Southeast 193 222 7,100 -60 Descending Chicago Center
08:50PM 41.9439 -84.7853 122° Southeast 191 220 7,100  Level Chicago Center
08:51PM 41.9156 -84.7208 121° Southeast 197 227 7,200  Climbing Chicago Center
08:52PM 41.8906 -84.6567 118° Southeast 195 224 7,100 -60 Descending Chicago Center
08:53PM 41.8664 -84.5928 117° Southeast 194 223 7,100  Level Chicago Center
08:54PM 41.8464 -84.5283 113° Southeast 189 217 7,100 -60 Level Chicago Center
08:55PM 41.8219 -84.4672 118° Southeast 186 214 7,000  Descending Chicago Center
08:56PM 41.7956 -84.3950 116° Southeast 183 211 7,100  Climbing Chicago Center
08:57PM 41.7758 -84.3328 113° Southeast 182 209 7,100 -540 Level Chicago Center
08:58PM 41.7514 -84.2683 117° Southeast 186 214 6,100 -960 Descending Chicago Center
08:59PM 41.7269 -84.1953 114° Southeast 200 230 5,200 -540 Descending Chicago Center
09:00PM 41.7278 -84.1150 89° East 207 238 5,100 -120 Descending Chicago Center